createdAt,value
2023-03-22T00:00:39.649Z,10.42
2023-03-22T00:02:11.544Z,10.44
2023-03-22T00:03:44.309Z,10.43
2023-03-22T00:05:16.108Z,10.43
2023-03-22T00:06:47.862Z,10.43
2023-03-22T00:08:19.802Z,10.43
2023-03-22T00:09:51.500Z,10.43
2023-03-22T00:11:25.683Z,10.43
2023-03-22T00:12:57.765Z,10.42
2023-03-22T00:14:29.431Z,10.43
2023-03-22T00:16:02.877Z,10.43
2023-03-22T00:17:36.735Z,10.45
2023-03-22T00:19:08.587Z,10.46
2023-03-22T00:20:47.884Z,10.43
2023-03-22T00:22:19.587Z,10.47
2023-03-22T00:23:51.312Z,10.47
2023-03-22T00:25:23.497Z,10.46
2023-03-22T00:26:55.193Z,10.45
2023-03-22T00:28:26.969Z,10.45
2023-03-22T00:29:58.661Z,10.46
2023-03-22T00:31:30.410Z,10.42
2023-03-22T00:33:02.176Z,10.43
2023-03-22T00:34:33.934Z,10.43
2023-03-22T00:36:09.996Z,10.41
2023-03-22T00:37:41.700Z,10.41
2023-03-22T00:39:13.684Z,10.42
2023-03-22T00:40:46.168Z,10.41
2023-03-22T00:42:17.854Z,10.40
2023-03-22T00:43:51.252Z,10.39
2023-03-22T00:45:22.938Z,10.39
2023-03-22T00:46:54.694Z,10.34
2023-03-22T00:48:26.442Z,10.33
2023-03-22T00:49:58.406Z,10.28
2023-03-22T00:51:30.429Z,10.25
2023-03-22T00:53:02.335Z,10.20
2023-03-22T00:54:34.031Z,10.13
2023-03-22T00:56:07.279Z,10.08
2023-03-22T00:57:48.867Z,10.03
2023-03-22T00:59:21.521Z,9.98
2023-03-22T01:00:56.286Z,9.95
2023-03-22T01:02:29.953Z,9.92
2023-03-22T01:04:01.994Z,9.88
2023-03-22T01:05:35.241Z,9.85
2023-03-22T01:07:08.217Z,9.81
2023-03-22T01:08:41.600Z,9.78
2023-03-22T01:10:13.573Z,9.76
2023-03-22T01:11:45.886Z,9.71
2023-03-22T01:13:18.109Z,9.68
2023-03-22T01:14:49.934Z,9.65
2023-03-22T01:16:21.983Z,9.62
2023-03-22T01:17:53.820Z,9.59
2023-03-22T01:19:27.554Z,9.55
2023-03-22T01:21:00.461Z,9.52
2023-03-22T01:22:32.304Z,9.46
2023-03-22T01:24:04.178Z,9.43
2023-03-22T01:25:35.913Z,9.39
2023-03-22T01:27:07.706Z,9.31
2023-03-22T01:28:40.699Z,9.26
2023-03-22T01:30:13.040Z,9.20
2023-03-22T01:31:45.023Z,9.14
2023-03-22T01:33:17.693Z,9.08
2023-03-22T01:34:49.632Z,9.02
2023-03-22T01:36:21.366Z,8.97
2023-03-22T01:37:53.134Z,8.92
2023-03-22T01:39:26.505Z,8.85
2023-03-22T01:41:02.079Z,8.78
2023-03-22T01:42:37.095Z,8.73
2023-03-22T01:44:13.300Z,8.66
2023-03-22T01:45:51.660Z,8.59
2023-03-22T01:47:24.688Z,8.53
2023-03-22T01:48:57.889Z,8.48
2023-03-22T01:50:31.433Z,8.42
2023-03-22T01:52:08.277Z,8.35
2023-03-22T01:53:50.464Z,8.29
2023-03-22T01:55:26.227Z,8.26
2023-03-22T01:57:10.682Z,8.23
2023-03-22T01:58:46.728Z,8.18
2023-03-22T02:00:22.510Z,8.15
2023-03-22T02:02:19.815Z,8.12
2023-03-22T02:04:07.323Z,8.07
2023-03-22T02:09:20.546Z,7.95
2023-03-22T02:10:54.041Z,7.94
2023-03-22T02:12:59.567Z,7.87
2023-03-22T02:15:11.355Z,7.89
2023-03-22T02:17:31.096Z,7.84
2023-03-22T02:19:42.597Z,7.81
2023-03-22T02:21:51.791Z,7.81
2023-03-22T02:23:48.806Z,7.77
2023-03-22T02:25:28.013Z,7.77
2023-03-22T02:27:05.044Z,7.78
2023-03-22T02:28:51.705Z,7.76
2023-03-22T02:30:36.014Z,7.76
2023-03-22T02:32:22.546Z,7.76
2023-03-22T02:34:25.882Z,7.74
2023-03-22T02:36:09.276Z,7.75
2023-03-22T02:37:49.867Z,7.73
2023-03-22T02:39:46.796Z,7.73
2023-03-22T02:41:32.720Z,7.71
2023-03-22T02:43:24.827Z,7.71
2023-03-22T02:45:41.289Z,7.69
2023-03-22T02:47:41.384Z,7.64
2023-03-22T02:49:28.404Z,7.63
2023-03-22T02:51:11.663Z,7.62
2023-03-22T02:52:51.642Z,7.60
2023-03-22T02:54:35.885Z,7.59
2023-03-22T02:56:13.482Z,7.59
2023-03-22T02:57:56.564Z,7.58
2023-03-22T02:59:31.738Z,7.56
2023-03-22T03:01:09.191Z,7.56
2023-03-22T03:02:47.045Z,7.55
2023-03-22T03:04:31.152Z,7.51
2023-03-22T03:06:13.146Z,7.50
2023-03-22T03:07:49.647Z,7.50
2023-03-22T03:09:22.448Z,7.49
2023-03-22T03:10:54.815Z,7.46
2023-03-22T03:12:28.302Z,7.44
2023-03-22T03:14:01.592Z,7.42
2023-03-22T03:15:33.346Z,7.40
2023-03-22T03:17:14.451Z,7.37
2023-03-22T03:18:52.266Z,7.35
2023-03-22T03:20:47.640Z,7.29
2023-03-22T03:22:56.934Z,7.27
2023-03-22T03:24:35.987Z,7.24
2023-03-22T03:26:20.911Z,7.22
2023-03-22T03:28:11.459Z,7.17
2023-03-22T03:29:50.736Z,7.13
2023-03-22T03:31:35.014Z,7.10
2023-03-22T03:33:09.736Z,7.09
2023-03-22T03:35:01.415Z,7.02
2023-03-22T03:36:37.894Z,7.02
2023-03-22T03:38:13.480Z,6.99
2023-03-22T03:39:53.480Z,6.94
2023-03-22T03:41:29.056Z,6.91
2023-03-22T03:43:05.159Z,6.88
2023-03-22T03:44:39.005Z,6.84
2023-03-22T03:46:11.316Z,6.81
2023-03-22T03:47:45.662Z,6.78
2023-03-22T03:49:18.058Z,6.75
2023-03-22T03:50:52.566Z,6.72
2023-03-22T03:52:26.265Z,6.68
2023-03-22T03:53:58.000Z,6.66
2023-03-22T03:55:31.013Z,6.63
2023-03-22T03:57:04.105Z,6.59
2023-03-22T03:58:36.024Z,6.58
2023-03-22T04:00:08.434Z,6.55
2023-03-22T04:01:50.435Z,6.54
2023-03-22T04:03:26.041Z,6.50
2023-03-22T04:05:23.796Z,6.49
2023-03-22T04:06:57.291Z,6.47
2023-03-22T04:08:29.359Z,6.45
2023-03-22T04:10:01.801Z,6.42
2023-03-22T04:11:37.432Z,6.40
2023-03-22T04:13:09.551Z,6.39
2023-03-22T04:14:41.878Z,6.37
2023-03-22T04:16:25.118Z,6.36
2023-03-22T04:17:56.979Z,6.37
2023-03-22T04:19:31.402Z,6.36
2023-03-22T04:21:03.509Z,6.37
2023-03-22T04:22:42.822Z,6.39
2023-03-22T04:24:14.976Z,6.42
2023-03-22T04:25:50.552Z,6.43
2023-03-22T04:27:29.282Z,6.46
2023-03-22T04:29:12.583Z,6.52
2023-03-22T04:30:52.454Z,6.53
2023-03-22T04:32:27.257Z,6.58
2023-03-22T04:34:05.728Z,6.62
2023-03-22T04:35:50.496Z,6.65
2023-03-22T04:37:27.096Z,6.68
2023-03-22T04:39:10.517Z,6.72
2023-03-22T04:40:46.697Z,6.75
2023-03-22T04:42:26.726Z,6.77
2023-03-22T04:44:11.304Z,6.79
2023-03-22T04:45:49.128Z,6.83
2023-03-22T04:47:26.245Z,6.86
2023-03-22T04:48:58.218Z,6.88
2023-03-22T04:50:29.904Z,6.90
2023-03-22T04:52:05.398Z,6.95
2023-03-22T04:53:41.453Z,6.96
2023-03-22T04:55:14.610Z,6.97
2023-03-22T04:56:47.745Z,6.99
2023-03-22T04:58:22.187Z,7.02
2023-03-22T04:59:53.910Z,7.01
2023-03-22T05:01:25.765Z,7.02
2023-03-22T05:03:06.607Z,7.04
2023-03-22T05:04:43.753Z,7.05
2023-03-22T05:06:23.743Z,7.06
2023-03-22T05:08:09.037Z,7.08
2023-03-22T05:09:41.030Z,7.09
2023-03-22T05:11:17.684Z,7.08
2023-03-22T05:12:58.307Z,7.09
2023-03-22T05:14:36.560Z,7.12
2023-03-22T05:16:10.299Z,7.13
2023-03-22T05:17:50.538Z,7.15
2023-03-22T05:19:24.545Z,7.18
2023-03-22T05:20:57.417Z,7.20
2023-03-22T05:22:29.490Z,7.22
2023-03-22T05:24:03.866Z,7.27
2023-03-22T05:25:36.887Z,7.30
2023-03-22T05:27:10.992Z,7.33
2023-03-22T05:28:44.215Z,7.35
2023-03-22T05:30:24.398Z,7.40
2023-03-22T05:32:04.015Z,7.42
2023-03-22T05:33:35.903Z,7.45
2023-03-22T05:35:08.999Z,7.48
2023-03-22T05:36:45.172Z,7.51
2023-03-22T05:38:28.826Z,7.56
2023-03-22T05:40:05.539Z,7.60
2023-03-22T05:41:41.745Z,7.65
2023-03-22T05:43:13.567Z,7.69
2023-03-22T05:44:49.538Z,7.73
2023-03-22T05:46:21.660Z,7.77
2023-03-22T05:48:12.675Z,7.82
2023-03-22T05:49:45.715Z,7.85
2023-03-22T05:51:17.865Z,7.91
2023-03-22T05:52:52.570Z,7.97
2023-03-22T05:54:49.085Z,8.03
2023-03-22T05:56:24.656Z,8.09
2023-03-22T05:58:05.297Z,8.15
2023-03-22T05:59:40.614Z,8.21
2023-03-22T06:01:20.601Z,8.26
2023-03-22T06:02:56.751Z,8.33
2023-03-22T06:04:30.449Z,8.39
2023-03-22T06:06:10.635Z,8.46
2023-03-22T06:07:51.723Z,8.54
2023-03-22T06:09:25.357Z,8.61
2023-03-22T06:10:58.110Z,8.68
2023-03-22T06:12:30.587Z,8.76
2023-03-22T06:14:12.363Z,8.85
2023-03-22T06:16:19.323Z,8.97
2023-03-22T06:17:51.457Z,9.03
2023-03-22T06:19:27.763Z,9.10
2023-03-22T06:21:00.572Z,9.16
2023-03-22T06:22:33.586Z,9.22
2023-03-22T06:24:05.796Z,9.30
2023-03-22T06:25:38.591Z,9.33
2023-03-22T06:27:10.695Z,9.38
2023-03-22T06:28:44.332Z,9.43
2023-03-22T06:30:17.139Z,9.51
2023-03-22T06:32:18.156Z,9.55
2023-03-22T06:33:50.886Z,9.60
2023-03-22T06:35:35.244Z,9.65
2023-03-22T06:37:08.156Z,9.70
2023-03-22T06:38:43.163Z,9.75
2023-03-22T06:40:15.457Z,9.79
2023-03-22T06:41:47.460Z,9.83
2023-03-22T06:43:19.485Z,9.89
2023-03-22T06:44:53.958Z,9.94
2023-03-22T06:46:35.001Z,9.97
2023-03-22T06:48:15.071Z,10.06
2023-03-22T06:50:07.418Z,10.11
2023-03-22T06:52:01.862Z,10.17
2023-03-22T06:53:33.586Z,10.20
2023-03-22T06:55:05.629Z,10.23
2023-03-22T06:56:37.327Z,10.26
2023-03-22T06:58:09.212Z,10.30
2023-03-22T06:59:40.916Z,10.35
2023-03-22T07:01:13.762Z,10.39
2023-03-22T07:02:45.602Z,10.45
2023-03-22T07:04:33.207Z,10.51
2023-03-22T07:06:07.679Z,10.56
2023-03-22T07:07:42.424Z,10.62
2023-03-22T07:09:14.307Z,10.66
2023-03-22T07:10:50.227Z,10.71
2023-03-22T07:12:23.247Z,10.75
2023-03-22T07:13:55.764Z,10.77
2023-03-22T07:15:27.616Z,10.83
2023-03-22T07:17:07.777Z,10.86
2023-03-22T07:18:39.454Z,10.91
2023-03-22T07:20:11.515Z,10.96
2023-03-22T07:21:43.346Z,11.00
2023-03-22T07:23:17.624Z,11.04
2023-03-22T07:24:58.348Z,11.09
2023-03-22T07:26:33.466Z,11.16
2023-03-22T07:28:07.172Z,11.21
2023-03-22T07:29:38.883Z,11.26
2023-03-22T07:31:12.438Z,11.32
2023-03-22T07:32:50.635Z,11.40
2023-03-22T07:34:22.666Z,11.48
2023-03-22T07:36:07.567Z,11.55
2023-03-22T07:37:39.295Z,11.61
2023-03-22T07:39:18.054Z,11.69
2023-03-22T07:40:56.877Z,11.79
2023-03-22T07:42:34.854Z,11.91
2023-03-22T07:44:23.284Z,11.99
2023-03-22T07:46:07.623Z,12.10
2023-03-22T07:48:01.835Z,12.22
2023-03-22T07:49:59.664Z,12.35
2023-03-22T07:51:35.547Z,12.46
2023-03-22T07:53:09.677Z,12.59
2023-03-22T07:54:41.492Z,12.70
2023-03-22T07:56:13.883Z,12.83
2023-03-22T07:57:46.648Z,12.96
2023-03-22T07:59:19.199Z,13.09
2023-03-22T08:00:51.201Z,13.24
2023-03-22T08:02:46.296Z,13.41
2023-03-22T08:04:38.455Z,13.59
2023-03-22T08:06:21.581Z,13.74
2023-03-22T08:07:54.511Z,13.86
2023-03-22T08:09:26.702Z,13.97
2023-03-22T08:10:58.808Z,14.07
2023-03-22T08:12:32.599Z,14.18
2023-03-22T08:14:12.556Z,14.27
2023-03-22T08:15:44.390Z,14.37
2023-03-22T08:17:17.510Z,14.46
2023-03-22T08:18:49.422Z,14.53
2023-03-22T08:20:21.308Z,14.60
2023-03-22T08:22:00.472Z,14.67
2023-03-22T08:23:52.216Z,14.76
2023-03-22T08:25:50.662Z,14.84
2023-03-22T08:27:22.512Z,14.90
2023-03-22T08:28:56.346Z,14.95
2023-03-22T08:30:28.176Z,14.98
2023-03-22T08:32:02.594Z,15.04
2023-03-22T08:33:34.423Z,15.11
2023-03-22T08:35:07.084Z,15.16
2023-03-22T08:36:38.847Z,15.20
2023-03-22T08:38:11.122Z,15.24
2023-03-22T08:39:50.294Z,15.28
2023-03-22T08:41:34.767Z,15.35
2023-03-22T08:43:06.805Z,15.42
2023-03-22T08:44:40.706Z,15.49
2023-03-22T08:46:12.965Z,15.53
2023-03-22T08:47:45.440Z,15.60
2023-03-22T08:49:17.715Z,15.64
2023-03-22T08:50:58.712Z,15.66
2023-03-22T08:52:40.462Z,15.72
2023-03-22T08:54:19.165Z,15.75
2023-03-22T08:56:24.977Z,15.78
2023-03-22T08:58:07.645Z,15.78
2023-03-22T08:59:46.612Z,15.81
2023-03-22T09:01:35.232Z,15.82
2023-03-22T09:03:08.355Z,15.84
2023-03-22T09:04:40.339Z,15.85
2023-03-22T09:06:13.028Z,15.87
2023-03-22T09:07:51.601Z,15.90
2023-03-22T09:09:32.477Z,15.94
2023-03-22T09:11:04.589Z,15.98
2023-03-22T09:12:37.835Z,16.01
2023-03-22T09:14:10.296Z,16.07
2023-03-22T09:15:44.822Z,16.11
2023-03-22T09:17:27.900Z,16.16
2023-03-22T09:19:02.530Z,16.20
2023-03-22T09:20:35.598Z,16.23
2023-03-22T09:22:08.781Z,16.27
2023-03-22T09:23:50.551Z,16.35
2023-03-22T09:25:25.724Z,16.38
2023-03-22T09:26:58.707Z,16.44
2023-03-22T09:28:31.093Z,16.50
2023-03-22T09:30:05.654Z,16.55
2023-03-22T09:31:37.625Z,16.61
2023-03-22T09:33:36.516Z,16.74
2023-03-22T09:35:08.805Z,16.82
2023-03-22T09:36:49.891Z,16.91
2023-03-22T09:38:25.518Z,17.01
2023-03-22T09:39:57.940Z,17.09
2023-03-22T09:41:49.942Z,17.14
2023-03-22T09:43:22.261Z,17.21
2023-03-22T09:44:55.553Z,17.25
2023-03-22T09:46:36.031Z,17.29
2023-03-22T09:48:37.263Z,17.27
2023-03-22T09:50:18.846Z,17.35
2023-03-22T09:51:52.827Z,17.42
2023-03-22T09:53:28.302Z,17.50
2023-03-22T09:55:00.559Z,17.57
2023-03-22T09:56:33.324Z,17.71
2023-03-22T09:58:23.857Z,17.85
2023-03-22T10:00:15.010Z,18.06
2023-03-22T10:01:51.104Z,18.29
2023-03-22T10:03:53.534Z,18.51
2023-03-22T10:05:50.275Z,18.82
2023-03-22T10:07:31.394Z,19.12
2023-03-22T10:09:14.960Z,19.36
2023-03-22T10:10:47.075Z,19.59
2023-03-22T10:12:21.727Z,19.77
2023-03-22T10:14:13.288Z,19.91
2023-03-22T10:15:52.428Z,20.06
2023-03-22T10:17:27.105Z,20.15
2023-03-22T10:19:17.403Z,20.23
2023-03-22T10:21:02.855Z,20.28
2023-03-22T10:22:38.819Z,20.34
2023-03-22T10:24:20.126Z,20.35
2023-03-22T10:25:53.136Z,20.35
2023-03-22T10:27:28.730Z,20.37
2023-03-22T10:29:09.874Z,20.38
2023-03-22T10:30:43.379Z,20.38
2023-03-22T10:32:56.414Z,20.33
2023-03-22T10:34:31.440Z,20.33
2023-03-22T10:36:06.254Z,20.27
2023-03-22T10:37:39.746Z,20.23
2023-03-22T10:39:32.159Z,20.15
2023-03-22T10:41:04.469Z,20.14
2023-03-22T10:42:38.687Z,20.11
2023-03-22T10:44:16.440Z,20.05
2023-03-22T10:45:50.090Z,20.00
2023-03-22T10:47:40.731Z,19.91
2023-03-22T10:49:23.406Z,19.88
2023-03-22T10:50:58.095Z,19.85
2023-03-22T10:52:49.869Z,19.75
2023-03-22T10:54:23.099Z,19.72
2023-03-22T10:55:56.696Z,19.68
2023-03-22T10:57:28.576Z,19.67
2023-03-22T10:59:00.432Z,19.70
2023-03-22T11:00:32.288Z,19.76
2023-03-22T11:02:04.206Z,19.82
2023-03-22T11:03:36.500Z,19.90
2023-03-22T11:05:23.044Z,19.93
2023-03-22T11:06:56.341Z,19.98
2023-03-22T11:08:28.296Z,19.99
2023-03-22T11:10:08.572Z,19.97
2023-03-22T11:11:51.685Z,19.95
2023-03-22T11:13:24.560Z,20.01
2023-03-22T11:14:56.365Z,20.01
2023-03-22T11:16:29.563Z,20.00
2023-03-22T11:18:32.301Z,19.91
2023-03-22T11:20:07.983Z,19.93
2023-03-22T11:21:42.488Z,19.88
2023-03-22T11:23:18.087Z,19.84
2023-03-22T11:24:51.702Z,19.85
2023-03-22T11:26:30.359Z,19.86
2023-03-22T11:28:05.093Z,19.90
2023-03-22T11:29:44.047Z,19.95
2023-03-22T11:31:19.339Z,20.05
2023-03-22T11:33:15.776Z,20.12
2023-03-22T11:34:47.825Z,20.26
2023-03-22T11:36:19.551Z,20.39
2023-03-22T11:37:54.116Z,20.53
2023-03-22T11:39:30.780Z,20.66
2023-03-22T11:41:08.551Z,20.80
2023-03-22T11:42:40.531Z,20.92
2023-03-22T11:44:16.137Z,21.03
2023-03-22T11:45:51.473Z,21.18
2023-03-22T11:47:26.039Z,21.27
2023-03-22T11:49:01.567Z,21.38
2023-03-22T11:50:37.810Z,21.49
2023-03-22T11:52:15.749Z,21.59
2023-03-22T11:53:48.772Z,21.68
2023-03-22T11:55:20.831Z,21.76
2023-03-22T11:56:58.139Z,21.84
2023-03-22T11:58:47.693Z,21.92
2023-03-22T12:00:23.950Z,22.03
2023-03-22T12:02:06.655Z,22.08
2023-03-22T12:03:42.310Z,22.13
2023-03-22T12:05:29.819Z,22.15
2023-03-22T12:07:05.363Z,22.22
2023-03-22T12:08:45.203Z,22.24
2023-03-22T12:10:27.148Z,22.23
2023-03-22T12:12:02.035Z,22.21
2023-03-22T12:13:49.836Z,22.16
2023-03-22T12:15:30.916Z,22.11
2023-03-22T12:17:11.250Z,22.08
2023-03-22T12:18:51.417Z,22.03
2023-03-22T12:20:35.078Z,21.99
2023-03-22T12:22:16.024Z,21.95
2023-03-22T12:23:47.779Z,21.94
2023-03-22T12:25:25.097Z,21.97
2023-03-22T12:27:23.209Z,21.90
2023-03-22T12:29:03.209Z,21.92
2023-03-22T12:30:43.361Z,21.95
2023-03-22T12:32:22.302Z,21.97
2023-03-22T12:33:56.269Z,21.97
2023-03-22T12:35:33.372Z,21.95
2023-03-22T12:37:07.809Z,21.93
2023-03-22T12:38:51.270Z,21.90
2023-03-22T12:40:31.887Z,21.85
2023-03-22T12:42:12.849Z,21.79
2023-03-22T12:43:52.127Z,21.75
2023-03-22T12:45:27.933Z,21.66
2023-03-22T12:47:16.911Z,21.57
2023-03-22T12:48:53.749Z,21.48
2023-03-22T12:50:44.730Z,21.34
2023-03-22T12:52:45.646Z,21.30
2023-03-22T12:54:22.816Z,21.23
2023-03-22T12:55:56.238Z,21.17
2023-03-22T12:57:28.238Z,21.10
2023-03-22T12:59:04.706Z,21.02
2023-03-22T13:00:48.719Z,20.93
2023-03-22T13:02:30.312Z,20.88
2023-03-22T13:04:31.405Z,20.80
2023-03-22T13:06:28.044Z,20.80
2023-03-22T13:08:03.515Z,20.77
2023-03-22T13:09:40.573Z,20.73
2023-03-22T13:11:23.759Z,20.67
2023-03-22T13:13:07.593Z,20.64
2023-03-22T13:15:16.711Z,20.61
2023-03-22T13:16:59.536Z,20.61
2023-03-22T13:18:38.400Z,20.59
2023-03-22T13:20:13.669Z,20.58
2023-03-22T13:21:49.043Z,20.54
2023-03-22T13:23:27.854Z,20.48
2023-03-22T13:25:04.444Z,20.45
2023-03-22T13:26:49.645Z,20.36
2023-03-22T13:28:29.704Z,20.33
2023-03-22T13:30:05.093Z,20.28
2023-03-22T13:31:42.686Z,20.24
2023-03-22T13:33:21.490Z,20.18
2023-03-22T13:34:53.488Z,20.17
2023-03-22T13:36:25.858Z,20.14
2023-03-22T13:38:24.573Z,20.10
2023-03-22T13:40:02.067Z,20.10
2023-03-22T13:41:35.338Z,20.05
2023-03-22T13:43:44.650Z,19.95
2023-03-22T13:45:33.705Z,19.91
2023-03-22T13:47:29.694Z,19.88
2023-03-22T13:49:01.597Z,19.85
2023-03-22T13:50:34.541Z,19.80
2023-03-22T13:52:08.211Z,19.78
2023-03-22T13:53:43.951Z,19.76
2023-03-22T13:55:41.715Z,19.69
2023-03-22T13:57:37.831Z,19.74
2023-03-22T14:00:08.820Z,19.69
2023-03-22T14:01:48.080Z,19.73
2023-03-22T14:03:35.862Z,19.66
2023-03-22T14:05:18.410Z,19.64
2023-03-22T14:06:56.147Z,19.58
2023-03-22T14:08:30.414Z,19.51
2023-03-22T14:10:21.498Z,19.46
2023-03-22T14:12:00.431Z,19.40
2023-03-22T14:13:42.416Z,19.33
2023-03-22T14:15:20.338Z,19.31
2023-03-22T14:17:13.334Z,19.31
2023-03-22T14:18:48.788Z,19.36
2023-03-22T14:20:24.303Z,19.43
2023-03-22T14:52:35.795Z,21.34
2023-03-22T14:54:17.431Z,21.50
2023-03-22T14:55:50.647Z,21.69
2023-03-22T14:57:28.484Z,21.83
2023-03-22T14:59:11.760Z,21.99
2023-03-22T15:00:43.968Z,22.10
2023-03-22T15:02:35.879Z,22.18
2023-03-22T15:04:13.900Z,22.32
2023-03-22T15:05:46.123Z,22.36
2023-03-22T15:07:19.934Z,22.39
2023-03-22T15:08:51.844Z,22.39
2023-03-22T15:10:33.215Z,22.33
2023-03-22T15:12:06.000Z,22.35
2023-03-22T15:13:40.830Z,22.31
2023-03-22T15:15:14.236Z,22.26
2023-03-22T15:16:49.798Z,22.23
2023-03-22T15:18:24.655Z,22.23
2023-03-22T15:19:56.646Z,22.20
2023-03-22T15:21:28.528Z,22.16
2023-03-22T15:23:14.886Z,22.09
2023-03-22T15:25:03.999Z,21.98
2023-03-22T15:26:36.011Z,21.96
2023-03-22T15:28:09.888Z,21.86
2023-03-22T15:29:43.611Z,21.80
2023-03-22T15:31:28.169Z,21.67
2023-03-22T15:33:06.883Z,21.55
2023-03-22T15:34:39.014Z,21.49
2023-03-22T15:36:17.929Z,21.38
2023-03-22T15:37:53.274Z,21.27
2023-03-22T15:39:37.272Z,21.09
2023-03-22T15:41:23.690Z,20.95
2023-03-22T15:43:24.480Z,20.74
2023-03-22T15:45:11.740Z,20.58
2023-03-22T15:46:55.451Z,20.41
2023-03-22T15:48:29.980Z,20.27
2023-03-22T15:50:04.715Z,20.10
2023-03-22T15:51:38.614Z,19.95
2023-03-22T15:53:31.083Z,19.76
2023-03-22T15:55:12.184Z,19.66
2023-03-22T15:56:49.464Z,19.53
2023-03-22T15:58:29.612Z,19.41
2023-03-22T16:00:01.336Z,19.30
2023-03-22T16:01:43.714Z,19.15
2023-03-22T16:03:15.636Z,19.09
2023-03-22T16:04:51.888Z,18.98
2023-03-22T16:06:28.673Z,18.89
2023-03-22T16:08:02.988Z,18.79
2023-03-22T16:09:34.974Z,18.64
2023-03-22T16:11:07.111Z,18.53
2023-03-22T16:12:38.920Z,18.40
2023-03-22T16:14:13.289Z,18.27
2023-03-22T16:15:46.067Z,18.14
2023-03-22T16:17:21.014Z,17.99
2023-03-22T16:18:53.610Z,17.85
2023-03-22T16:20:32.537Z,17.73
2023-03-22T16:22:04.388Z,17.59
2023-03-22T16:23:36.430Z,17.46
2023-03-22T16:25:14.586Z,17.32
2023-03-22T16:26:46.536Z,17.20
2023-03-22T16:28:18.498Z,17.06
2023-03-22T16:29:50.507Z,16.93
2023-03-22T16:31:23.461Z,16.82
2023-03-22T16:32:55.740Z,16.70
2023-03-22T16:34:27.821Z,16.59
2023-03-22T16:35:59.653Z,16.49
2023-03-22T16:37:35.365Z,16.37
2023-03-22T16:39:07.170Z,16.27
2023-03-22T16:40:49.088Z,16.16
2023-03-22T16:42:23.593Z,16.07
2023-03-22T16:43:58.627Z,15.96
2023-03-22T16:45:35.043Z,15.85
2023-03-22T16:47:12.400Z,15.75
2023-03-22T16:48:44.671Z,15.65
2023-03-22T16:50:17.783Z,15.57
2023-03-22T16:51:49.598Z,15.48
2023-03-22T16:53:21.873Z,15.37
2023-03-22T16:54:54.856Z,15.28
2023-03-22T16:56:30.655Z,15.20
2023-03-22T16:58:02.946Z,15.12
2023-03-22T16:59:34.769Z,15.02
2023-03-22T17:01:06.815Z,14.96
2023-03-22T17:02:39.038Z,14.88
2023-03-22T17:04:11.597Z,14.78
2023-03-22T17:05:44.545Z,14.72
2023-03-22T17:07:20.179Z,14.65
2023-03-22T17:08:52.416Z,14.57
2023-03-22T17:10:28.960Z,14.51
2023-03-22T17:12:00.807Z,14.42
2023-03-22T17:13:32.747Z,14.34
2023-03-22T17:15:27.780Z,14.24
2023-03-22T17:16:59.711Z,14.18
2023-03-22T17:18:31.597Z,14.06
2023-03-22T17:20:03.434Z,13.97
2023-03-22T17:21:35.444Z,13.88
2023-03-22T17:23:09.496Z,13.79
2023-03-22T17:24:42.779Z,13.68
2023-03-22T17:26:17.500Z,13.59
2023-03-22T17:27:50.709Z,13.51
2023-03-22T17:29:23.260Z,13.41
2023-03-22T17:30:57.125Z,13.32
2023-03-22T17:32:45.733Z,13.25
2023-03-22T17:34:22.001Z,13.18
2023-03-22T17:35:54.207Z,13.11
2023-03-22T17:37:26.338Z,13.04
2023-03-22T17:39:18.774Z,12.98
2023-03-22T17:40:55.078Z,12.92
2023-03-22T17:42:29.665Z,12.85
2023-03-22T17:44:01.555Z,12.79
2023-03-22T17:46:01.074Z,12.73
2023-03-22T17:47:39.724Z,12.67
2023-03-22T17:49:13.899Z,12.62
2023-03-22T17:50:45.831Z,12.57
2023-03-22T17:52:17.743Z,12.53
2023-03-22T17:54:33.884Z,12.49
2023-03-22T17:57:52.356Z,12.39
2023-03-22T17:59:07.280Z,12.35
2023-03-22T18:00:39.600Z,12.31
2023-03-22T18:02:27.054Z,12.25
2023-03-22T18:03:59.784Z,12.23
2023-03-22T18:05:34.266Z,12.17
2023-03-22T18:07:06.232Z,12.14
2023-03-22T18:08:38.091Z,12.11
2023-03-22T18:10:11.234Z,12.06
2023-03-22T18:11:43.119Z,12.03
2023-03-22T18:13:15.498Z,11.99
2023-03-22T18:14:47.895Z,11.97
2023-03-22T18:16:21.618Z,11.94
2023-03-22T18:18:13.364Z,11.94
2023-03-22T18:20:00.609Z,11.91
2023-03-22T18:21:37.533Z,11.88
2023-03-22T18:23:09.415Z,11.87
2023-03-22T18:24:41.216Z,11.86
2023-03-22T18:27:51.198Z,11.79
2023-03-22T18:29:23.306Z,11.76
2023-03-22T18:30:55.275Z,11.75
2023-03-22T18:32:38.323Z,11.73
2023-03-22T18:34:20.569Z,11.70
2023-03-22T18:35:56.052Z,11.68
2023-03-22T18:37:30.037Z,11.65
2023-03-22T18:39:26.775Z,11.63
2023-03-22T18:42:48.551Z,11.58
2023-03-22T18:44:21.470Z,11.56
2023-03-22T18:46:00.736Z,11.53
2023-03-22T18:47:37.751Z,11.51
2023-03-22T18:49:10.410Z,11.45
2023-03-22T18:50:42.935Z,11.42
2023-03-22T18:52:39.971Z,11.38
2023-03-22T18:54:10.514Z,11.34
2023-03-22T18:55:47.887Z,11.29
2023-03-22T18:57:25.968Z,11.25
2023-03-22T18:59:04.756Z,11.22
2023-03-22T19:00:37.637Z,11.18
2023-03-22T19:02:20.653Z,11.14
2023-03-22T19:03:56.859Z,11.10
2023-03-22T19:05:28.718Z,11.08
2023-03-22T19:07:01.172Z,11.06
2023-03-22T19:08:33.265Z,11.05
2023-03-22T19:10:06.802Z,11.04
2023-03-22T19:11:39.289Z,11.02
2023-03-22T19:13:11.385Z,11.02
2023-03-22T19:16:25.443Z,11.00
2023-03-22T19:17:57.287Z,11.00
2023-03-22T19:19:32.444Z,10.99
2023-03-22T19:21:11.857Z,10.97
2023-03-22T19:22:49.645Z,10.97
2023-03-22T19:24:22.084Z,10.95
2023-03-22T19:25:54.532Z,10.95
2023-03-22T19:27:26.349Z,10.93
2023-03-22T19:28:58.969Z,10.91
2023-03-22T19:30:30.790Z,10.91
2023-03-22T19:32:03.458Z,10.88
2023-03-22T19:33:55.546Z,10.88
2023-03-22T19:35:27.581Z,10.86
2023-03-22T19:36:59.514Z,10.87
2023-03-22T19:38:32.859Z,10.86
2023-03-22T19:41:03.071Z,10.85
2023-03-22T19:42:05.444Z,10.84
2023-03-22T19:43:38.849Z,10.83
2023-03-22T19:45:12.006Z,10.82
2023-03-22T19:46:44.123Z,10.79
2023-03-22T19:48:16.664Z,10.76
2023-03-22T19:49:48.887Z,10.76
2023-03-22T19:51:20.777Z,10.75
2023-03-22T19:54:36.006Z,10.77
2023-03-22T19:56:15.209Z,10.79
2023-03-22T19:57:47.119Z,10.80
2023-03-22T19:59:19.538Z,10.84
2023-03-22T20:00:52.574Z,10.85
2023-03-22T20:02:24.473Z,10.87
2023-03-22T20:03:56.879Z,10.89
2023-03-22T20:05:29.693Z,10.90
2023-03-22T20:07:03.040Z,10.92
2023-03-22T20:08:36.617Z,10.93
2023-03-22T20:10:09.026Z,10.93
2023-03-22T20:11:43.699Z,10.93
2023-03-22T20:13:15.730Z,10.93
2023-03-22T20:14:47.650Z,10.92
2023-03-22T20:16:20.880Z,10.92
2023-03-22T20:17:53.176Z,10.92
2023-03-22T20:19:26.820Z,10.93
2023-03-22T20:20:58.977Z,10.95
2023-03-22T20:22:30.984Z,10.94
2023-03-22T20:24:03.090Z,10.96
2023-03-22T20:25:34.875Z,10.97
2023-03-22T20:27:08.993Z,10.96
2023-03-22T20:28:43.121Z,10.97
2023-03-22T20:30:17.297Z,10.96
2023-03-22T20:31:49.462Z,10.96
2023-03-22T20:33:21.540Z,10.98
2023-03-22T20:34:53.639Z,10.98
2023-03-22T20:36:25.900Z,10.99
2023-03-22T20:37:58.242Z,10.98
2023-03-22T20:39:31.016Z,10.98
2023-03-22T20:41:02.977Z,11.01
2023-03-22T20:42:34.826Z,11.04
2023-03-22T20:44:06.644Z,11.05
2023-03-22T20:45:38.750Z,11.10
2023-03-22T20:47:11.089Z,11.14
2023-03-22T20:48:44.381Z,11.20
2023-03-22T20:50:16.450Z,11.24
2023-03-22T20:51:48.414Z,11.28
2023-03-22T20:53:20.566Z,11.31
2023-03-22T20:54:52.451Z,11.35
2023-03-22T20:56:24.350Z,11.39
2023-03-22T20:57:56.467Z,11.41
2023-03-22T20:59:28.976Z,11.43
2023-03-22T21:01:01.471Z,11.44
2023-03-22T21:02:33.285Z,11.46
2023-03-22T21:04:05.091Z,11.48
2023-03-22T21:05:37.961Z,11.47
2023-03-22T21:07:10.490Z,11.49
2023-03-22T21:08:42.689Z,11.50
2023-03-22T21:10:16.538Z,11.50
2023-03-22T21:11:48.476Z,11.51
2023-03-22T21:13:20.588Z,11.54
2023-03-22T21:14:52.450Z,11.55
2023-03-22T21:16:24.903Z,11.58
2023-03-22T21:17:57.077Z,11.59
2023-03-22T21:19:29.089Z,11.64
2023-03-22T21:21:01.101Z,11.66
2023-03-22T21:22:33.676Z,11.69
2023-03-22T21:24:06.226Z,11.72
2023-03-22T21:25:38.381Z,11.75
2023-03-22T21:27:10.239Z,11.76
2023-03-22T21:28:42.302Z,11.81
2023-03-22T21:30:14.490Z,11.83
2023-03-22T21:31:46.318Z,11.85
2023-03-22T21:33:18.459Z,11.87
2023-03-22T21:34:50.425Z,11.88
2023-03-22T21:36:22.429Z,11.89
2023-03-22T21:37:58.150Z,11.91
2023-03-22T21:39:30.218Z,11.91
2023-03-22T21:41:03.502Z,11.91
2023-03-22T21:42:36.993Z,11.90
2023-03-22T21:44:09.395Z,11.90
2023-03-22T21:45:42.125Z,11.90
2023-03-22T21:47:21.082Z,11.90
2023-03-22T21:49:01.893Z,11.90